sensor_id;sensor_type;location;lat;lon;timestamp;P1;durP1;ratioP1;P2;durP2;ratioP2
14268;SDS011;7218;51.480;7.006;2022-09-01T00:01:30;1.40;;;1.27;;
14268;SDS011;7218;51.480;7.006;2022-09-01T00:03:58;1.80;;;1.25;;
14268;SDS011;7218;51.480;7.006;2022-09-01T00:06:28;5.13;;;1.40;;
14268;SDS011;7218;51.480;7.006;2022-09-01T00:08:57;2.63;;;1.67;;
14268;SDS011;7218;51.480;7.006;2022-09-01T00:11:26;2.75;;;1.42;;
14268;SDS011;7218;51.480;7.006;2022-09-01T00:13:53;4.15;;;1.50;;
14268;SDS011;7218;51.480;7.006;2022-09-01T00:16:21;1.40;;;1.30;;
14268;SDS011;7218;51.480;7.006;2022-09-01T00:18:51;2.80;;;1.55;;
14268;SDS011;7218;51.480;7.006;2022-09-01T00:21:23;4.32;;;1.70;;
14268;SDS011;7218;51.480;7.006;2022-09-01T00:23:51;3.25;;;1.63;;
14268;SDS011;7218;51.480;7.006;2022-09-01T00:26:18;3.05;;;1.55;;
14268;SDS011;7218;51.480;7.006;2022-09-01T00:28:45;4.03;;;1.60;;
14268;SDS011;7218;51.480;7.006;2022-09-01T00:31:11;1.67;;;1.42;;
14268;SDS011;7218;51.480;7.006;2022-09-01T00:33:39;3.47;;;1.40;;
14268;SDS011;7218;51.480;7.006;2022-09-01T00:36:07;3.33;;;1.48;;
14268;SDS011;7218;51.480;7.006;2022-09-01T00:38:34;1.88;;;1.63;;
14268;SDS011;7218;51.480;7.006;2022-09-01T00:41:00;2.58;;;1.80;;
14268;SDS011;7218;51.480;7.006;2022-09-01T00:43:34;2.05;;;1.50;;
14268;SDS011;7218;51.480;7.006;2022-09-01T00:46:03;2.17;;;1.38;;
14268;SDS011;7218;51.480;7.006;2022-09-01T00:48:30;6.78;;;1.95;;
14268;SDS011;7218;51.480;7.006;2022-09-01T00:50:57;2.42;;;1.60;;
14268;SDS011;7218;51.480;7.006;2022-09-01T00:53:26;5.35;;;1.50;;
14268;SDS011;7218;51.480;7.006;2022-09-01T00:55:53;2.67;;;1.60;;
14268;SDS011;7218;51.480;7.006;2022-09-01T00:58:20;3.10;;;1.50;;
14268;SDS011;7218;51.480;7.006;2022-09-01T01:00:47;2.85;;;1.48;;
14268;SDS011;7218;51.480;7.006;2022-09-01T01:03:16;2.80;;;1.63;;
14268;SDS011;7218;51.480;7.006;2022-09-01T01:05:46;2.90;;;1.60;;
14268;SDS011;7218;51.480;7.006;2022-09-01T01:08:18;2.10;;;1.50;;
14268;SDS011;7218;51.480;7.006;2022-09-01T01:10:55;2.20;;;1.70;;
14268;SDS011;7218;51.480;7.006;2022-09-01T01:13:21;2.92;;;1.75;;
14268;SDS011;7218;51.480;7.006;2022-09-01T01:15:50;3.67;;;1.77;;
14268;SDS011;7218;51.480;7.006;2022-09-01T01:18:16;3.97;;;1.52;;
14268;SDS011;7218;51.480;7.006;2022-09-01T01:20:43;3.60;;;1.50;;
14268;SDS011;7218;51.480;7.006;2022-09-01T01:23:32;2.78;;;1.65;;
14268;SDS011;7218;51.480;7.006;2022-09-01T01:26:06;1.65;;;1.45;;
14268;SDS011;7218;51.480;7.006;2022-09-01T01:28:35;3.25;;;1.38;;
14268;SDS011;7218;51.480;7.006;2022-09-01T01:31:04;2.08;;;1.48;;
14268;SDS011;7218;51.480;7.006;2022-09-01T01:33:36;4.45;;;1.60;;
14268;SDS011;7218;51.480;7.006;2022-09-01T01:36:06;2.20;;;1.45;;
14268;SDS011;7218;51.480;7.006;2022-09-01T01:38:34;2.20;;;1.50;;
14268;SDS011;7218;51.480;7.006;2022-09-01T01:41:00;2.10;;;1.60;;
14268;SDS011;7218;51.480;7.006;2022-09-01T01:43:29;2.95;;;1.50;;
14268;SDS011;7218;51.480;7.006;2022-09-01T01:45:56;1.67;;;1.58;;
14268;SDS011;7218;51.480;7.006;2022-09-01T01:48:28;2.53;;;1.50;;
14268;SDS011;7218;51.480;7.006;2022-09-01T01:50:59;3.45;;;1.40;;
14268;SDS011;7218;51.480;7.006;2022-09-01T01:53:27;3.13;;;1.52;;
14268;SDS011;7218;51.480;7.006;2022-09-01T01:55:54;2.78;;;1.80;;
14268;SDS011;7218;51.480;7.006;2022-09-01T01:58:22;1.65;;;1.50;;
14268;SDS011;7218;51.480;7.006;2022-09-01T02:00:51;2.67;;;1.38;;
14268;SDS011;7218;51.480;7.006;2022-09-01T02:03:19;4.93;;;1.40;;
14268;SDS011;7218;51.480;7.006;2022-09-01T02:05:50;2.97;;;1.48;;
14268;SDS011;7218;51.480;7.006;2022-09-01T02:08:18;3.85;;;1.50;;
14268;SDS011;7218;51.480;7.006;2022-09-01T02:10:47;2.00;;;1.50;;
14268;SDS011;7218;51.480;7.006;2022-09-01T02:13:16;3.78;;;1.42;;
14268;SDS011;7218;51.480;7.006;2022-09-01T02:15:45;1.77;;;1.30;;
14268;SDS011;7218;51.480;7.006;2022-09-01T02:18:17;3.72;;;1.50;;
14268;SDS011;7218;51.480;7.006;2022-09-01T02:20:46;4.55;;;1.30;;
14268;SDS011;7218;51.480;7.006;2022-09-01T02:23:14;2.45;;;1.50;;
14268;SDS011;7218;51.480;7.006;2022-09-01T02:25:47;3.33;;;1.20;;
14268;SDS011;7218;51.480;7.006;2022-09-01T02:28:16;3.28;;;1.50;;
14268;SDS011;7218;51.480;7.006;2022-09-01T02:30:44;4.57;;;1.63;;
14268;SDS011;7218;51.480;7.006;2022-09-01T02:33:13;6.30;;;1.70;;
14268;SDS011;7218;51.480;7.006;2022-09-01T02:35:44;2.25;;;1.40;;
14268;SDS011;7218;51.480;7.006;2022-09-01T02:38:12;2.78;;;1.52;;
14268;SDS011;7218;51.480;7.006;2022-09-01T02:40:39;3.45;;;1.52;;
14268;SDS011;7218;51.480;7.006;2022-09-01T02:43:09;2.17;;;1.63;;
14268;SDS011;7218;51.480;7.006;2022-09-01T02:45:37;3.63;;;1.70;;
14268;SDS011;7218;51.480;7.006;2022-09-01T02:48:06;2.67;;;1.73;;
14268;SDS011;7218;51.480;7.006;2022-09-01T02:50:33;2.60;;;1.45;;
14268;SDS011;7218;51.480;7.006;2022-09-01T02:53:01;2.15;;;1.25;;
14268;SDS011;7218;51.480;7.006;2022-09-01T02:55:33;1.58;;;1.40;;
14268;SDS011;7218;51.480;7.006;2022-09-01T02:58:00;1.83;;;1.42;;
14268;SDS011;7218;51.480;7.006;2022-09-01T03:00:26;2.58;;;1.48;;
14268;SDS011;7218;51.480;7.006;2022-09-01T03:02:55;2.78;;;1.50;;
14268;SDS011;7218;51.480;7.006;2022-09-01T03:05:24;3.75;;;1.42;;
14268;SDS011;7218;51.480;7.006;2022-09-01T03:07:52;4.30;;;1.55;;
14268;SDS011;7218;51.480;7.006;2022-09-01T03:10:24;1.35;;;1.20;;
14268;SDS011;7218;51.480;7.006;2022-09-01T03:12:57;2.47;;;1.17;;
14268;SDS011;7218;51.480;7.006;2022-09-01T03:15:25;1.98;;;1.27;;
14268;SDS011;7218;51.480;7.006;2022-09-01T03:17:52;2.65;;;1.25;;
14268;SDS011;7218;51.480;7.006;2022-09-01T03:20:19;5.57;;;1.70;;
14268;SDS011;7218;51.480;7.006;2022-09-01T03:22:45;3.17;;;1.40;;
14268;SDS011;7218;51.480;7.006;2022-09-01T03:25:12;3.63;;;1.60;;
14268;SDS011;7218;51.480;7.006;2022-09-01T03:27:40;3.92;;;1.60;;
14268;SDS011;7218;51.480;7.006;2022-09-01T03:30:07;2.72;;;1.40;;
14268;SDS011;7218;51.480;7.006;2022-09-01T03:32:34;2.38;;;1.40;;
14268;SDS011;7218;51.480;7.006;2022-09-01T03:35:01;2.60;;;1.70;;
14268;SDS011;7218;51.480;7.006;2022-09-01T03:37:27;2.47;;;1.60;;
14268;SDS011;7218;51.480;7.006;2022-09-01T03:39:54;2.47;;;1.70;;
14268;SDS011;7218;51.480;7.006;2022-09-01T03:42:24;1.98;;;1.50;;
14268;SDS011;7218;51.480;7.006;2022-09-01T03:44:55;2.38;;;1.50;;
14268;SDS011;7218;51.480;7.006;2022-09-01T03:47:22;2.72;;;1.50;;
14268;SDS011;7218;51.480;7.006;2022-09-01T03:49:48;2.92;;;1.52;;
14268;SDS011;7218;51.480;7.006;2022-09-01T03:52:15;2.75;;;1.40;;
14268;SDS011;7218;51.480;7.006;2022-09-01T03:54:42;4.47;;;1.52;;
14268;SDS011;7218;51.480;7.006;2022-09-01T03:57:10;2.55;;;1.48;;
14268;SDS011;7218;51.480;7.006;2022-09-01T03:59:36;5.40;;;1.48;;
14268;SDS011;7218;51.480;7.006;2022-09-01T04:02:10;1.80;;;1.30;;
14268;SDS011;7218;51.480;7.006;2022-09-01T04:04:37;2.38;;;1.60;;
14268;SDS011;7218;51.480;7.006;2022-09-01T04:07:03;5.30;;;1.58;;
14268;SDS011;7218;51.480;7.006;2022-09-01T04:09:31;3.88;;;1.70;;
14268;SDS011;7218;51.480;7.006;2022-09-01T04:11:59;3.60;;;1.73;;
14268;SDS011;7218;51.480;7.006;2022-09-01T04:14:25;2.95;;;1.60;;
14268;SDS011;7218;51.480;7.006;2022-09-01T04:16:52;5.30;;;1.63;;
14268;SDS011;7218;51.480;7.006;2022-09-01T04:19:37;2.95;;;1.75;;
14268;SDS011;7218;51.480;7.006;2022-09-01T04:22:04;3.92;;;1.70;;
14268;SDS011;7218;51.480;7.006;2022-09-01T04:24:32;2.65;;;1.65;;
14268;SDS011;7218;51.480;7.006;2022-09-01T04:27:00;2.67;;;1.60;;
14268;SDS011;7218;51.480;7.006;2022-09-01T04:29:28;3.90;;;1.80;;
14268;SDS011;7218;51.480;7.006;2022-09-01T04:31:56;2.47;;;1.60;;
14268;SDS011;7218;51.480;7.006;2022-09-01T04:34:26;2.15;;;1.65;;
14268;SDS011;7218;51.480;7.006;2022-09-01T04:36:56;7.07;;;1.83;;
14268;SDS011;7218;51.480;7.006;2022-09-01T04:39:22;2.78;;;1.85;;
14268;SDS011;7218;51.480;7.006;2022-09-01T04:41:49;3.17;;;1.40;;
14268;SDS011;7218;51.480;7.006;2022-09-01T04:44:17;2.38;;;1.30;;
14268;SDS011;7218;51.480;7.006;2022-09-01T04:46:44;3.38;;;1.65;;
14268;SDS011;7218;51.480;7.006;2022-09-01T04:49:15;3.05;;;1.80;;
14268;SDS011;7218;51.480;7.006;2022-09-01T04:51:46;3.45;;;1.52;;
14268;SDS011;7218;51.480;7.006;2022-09-01T04:54:16;6.93;;;2.20;;
14268;SDS011;7218;51.480;7.006;2022-09-01T04:56:44;5.07;;;1.80;;
14268;SDS011;7218;51.480;7.006;2022-09-01T04:59:14;2.60;;;1.45;;
14268;SDS011;7218;51.480;7.006;2022-09-01T05:01:44;3.42;;;1.92;;
14268;SDS011;7218;51.480;7.006;2022-09-01T05:04:15;1.70;;;1.50;;
14268;SDS011;7218;51.480;7.006;2022-09-01T05:06:45;7.18;;;1.52;;
14268;SDS011;7218;51.480;7.006;2022-09-01T05:09:13;2.80;;;1.80;;
14268;SDS011;7218;51.480;7.006;2022-09-01T05:11:42;2.38;;;1.80;;
14268;SDS011;7218;51.480;7.006;2022-09-01T05:14:12;3.17;;;1.58;;
14268;SDS011;7218;51.480;7.006;2022-09-01T05:16:43;4.53;;;1.50;;
14268;SDS011;7218;51.480;7.006;2022-09-01T05:19:09;4.75;;;1.70;;
14268;SDS011;7218;51.480;7.006;2022-09-01T05:21:39;2.47;;;1.45;;
14268;SDS011;7218;51.480;7.006;2022-09-01T05:24:09;4.70;;;1.50;;
14268;SDS011;7218;51.480;7.006;2022-09-01T05:26:38;3.28;;;1.48;;
14268;SDS011;7218;51.480;7.006;2022-09-01T05:29:06;3.38;;;1.70;;
14268;SDS011;7218;51.480;7.006;2022-09-01T05:31:38;3.78;;;1.52;;
14268;SDS011;7218;51.480;7.006;2022-09-01T05:34:06;4.25;;;1.65;;
14268;SDS011;7218;51.480;7.006;2022-09-01T05:36:33;3.15;;;1.70;;
14268;SDS011;7218;51.480;7.006;2022-09-01T05:39:02;2.58;;;1.50;;
14268;SDS011;7218;51.480;7.006;2022-09-01T05:41:30;2.85;;;1.60;;
14268;SDS011;7218;51.480;7.006;2022-09-01T05:43:57;5.43;;;1.80;;
14268;SDS011;7218;51.480;7.006;2022-09-01T05:46:26;4.22;;;2.00;;
14268;SDS011;7218;51.480;7.006;2022-09-01T05:48:53;2.50;;;1.52;;
14268;SDS011;7218;51.480;7.006;2022-09-01T05:51:22;5.53;;;1.80;;
14268;SDS011;7218;51.480;7.006;2022-09-01T05:53:51;4.13;;;1.58;;
14268;SDS011;7218;51.480;7.006;2022-09-01T05:56:23;4.28;;;1.65;;
14268;SDS011;7218;51.480;7.006;2022-09-01T05:58:50;4.80;;;1.80;;
14268;SDS011;7218;51.480;7.006;2022-09-01T06:01:18;5.88;;;2.10;;
14268;SDS011;7218;51.480;7.006;2022-09-01T06:03:48;7.00;;;1.80;;
14268;SDS011;7218;51.480;7.006;2022-09-01T06:06:19;4.05;;;1.92;;
14268;SDS011;7218;51.480;7.006;2022-09-01T06:08:46;5.45;;;1.88;;
14268;SDS011;7218;51.480;7.006;2022-09-01T06:11:14;5.15;;;2.03;;
14268;SDS011;7218;51.480;7.006;2022-09-01T06:13:41;3.78;;;1.70;;
14268;SDS011;7218;51.480;7.006;2022-09-01T06:16:11;5.50;;;1.70;;
14268;SDS011;7218;51.480;7.006;2022-09-01T06:18:40;6.18;;;1.80;;
14268;SDS011;7218;51.480;7.006;2022-09-01T06:21:09;3.63;;;1.85;;
14268;SDS011;7218;51.480;7.006;2022-09-01T06:23:38;5.00;;;1.80;;
14268;SDS011;7218;51.480;7.006;2022-09-01T06:26:06;4.15;;;1.75;;
14268;SDS011;7218;51.480;7.006;2022-09-01T06:28:33;4.25;;;1.90;;
14268;SDS011;7218;51.480;7.006;2022-09-01T06:31:05;4.10;;;1.88;;
14268;SDS011;7218;51.480;7.006;2022-09-01T06:33:33;2.25;;;1.60;;
14268;SDS011;7218;51.480;7.006;2022-09-01T06:36:00;4.65;;;1.80;;
14268;SDS011;7218;51.480;7.006;2022-09-01T06:38:29;4.03;;;1.88;;
14268;SDS011;7218;51.480;7.006;2022-09-01T06:40:59;3.05;;;2.13;;
14268;SDS011;7218;51.480;7.006;2022-09-01T06:43:28;3.45;;;1.80;;
14268;SDS011;7218;51.480;7.006;2022-09-01T06:45:55;4.15;;;2.28;;
14268;SDS011;7218;51.480;7.006;2022-09-01T06:48:25;3.03;;;1.80;;
14268;SDS011;7218;51.480;7.006;2022-09-01T06:50:54;2.92;;;1.85;;
14268;SDS011;7218;51.480;7.006;2022-09-01T06:53:24;3.47;;;1.60;;
14268;SDS011;7218;51.480;7.006;2022-09-01T06:55:52;6.22;;;1.65;;
14268;SDS011;7218;51.480;7.006;2022-09-01T06:58:20;5.35;;;1.70;;
14268;SDS011;7218;51.480;7.006;2022-09-01T07:00:46;2.95;;;1.80;;
14268;SDS011;7218;51.480;7.006;2022-09-01T07:03:13;4.18;;;1.70;;
14268;SDS011;7218;51.480;7.006;2022-09-01T07:05:42;9.73;;;1.80;;
14268;SDS011;7218;51.480;7.006;2022-09-01T07:08:12;5.68;;;1.60;;
14268;SDS011;7218;51.480;7.006;2022-09-01T07:10:44;3.28;;;1.65;;
14268;SDS011;7218;51.480;7.006;2022-09-01T07:13:16;3.95;;;1.77;;
14268;SDS011;7218;51.480;7.006;2022-09-01T07:15:46;7.25;;;1.83;;
14268;SDS011;7218;51.480;7.006;2022-09-01T07:18:14;5.05;;;1.70;;
14268;SDS011;7218;51.480;7.006;2022-09-01T07:20:41;5.60;;;1.50;;
14268;SDS011;7218;51.480;7.006;2022-09-01T07:23:08;3.72;;;1.83;;
14268;SDS011;7218;51.480;7.006;2022-09-01T07:25:37;4.97;;;1.80;;
14268;SDS011;7218;51.480;7.006;2022-09-01T07:28:05;3.63;;;2.00;;
14268;SDS011;7218;51.480;7.006;2022-09-01T07:30:38;3.55;;;1.60;;
14268;SDS011;7218;51.480;7.006;2022-09-01T07:33:06;5.40;;;2.10;;
14268;SDS011;7218;51.480;7.006;2022-09-01T07:35:36;4.57;;;1.70;;
14268;SDS011;7218;51.480;7.006;2022-09-01T07:38:03;3.90;;;2.00;;
14268;SDS011;7218;51.480;7.006;2022-09-01T07:40:32;5.40;;;2.03;;
14268;SDS011;7218;51.480;7.006;2022-09-01T07:43:02;2.65;;;2.10;;
14268;SDS011;7218;51.480;7.006;2022-09-01T07:45:33;6.82;;;2.03;;
14268;SDS011;7218;51.480;7.006;2022-09-01T07:48:02;9.27;;;2.22;;
14268;SDS011;7218;51.480;7.006;2022-09-01T07:50:31;3.10;;;1.83;;
14268;SDS011;7218;51.480;7.006;2022-09-01T07:52:58;3.03;;;1.58;;
14268;SDS011;7218;51.480;7.006;2022-09-01T07:55:25;3.60;;;1.60;;
14268;SDS011;7218;51.480;7.006;2022-09-01T07:57:53;5.72;;;1.70;;
14268;SDS011;7218;51.480;7.006;2022-09-01T08:00:19;3.08;;;1.58;;
14268;SDS011;7218;51.480;7.006;2022-09-01T08:02:47;3.75;;;1.25;;
14268;SDS011;7218;51.480;7.006;2022-09-01T08:05:16;1.42;;;1.33;;
14268;SDS011;7218;51.480;7.006;2022-09-01T08:07:46;3.03;;;1.60;;
14268;SDS011;7218;51.480;7.006;2022-09-01T08:10:13;4.90;;;1.42;;
14268;SDS011;7218;51.480;7.006;2022-09-01T08:12:41;3.08;;;1.50;;
14268;SDS011;7218;51.480;7.006;2022-09-01T08:15:08;3.10;;;1.65;;
14268;SDS011;7218;51.480;7.006;2022-09-01T08:17:36;3.95;;;1.65;;
14268;SDS011;7218;51.480;7.006;2022-09-01T08:20:06;4.95;;;1.55;;
14268;SDS011;7218;51.480;7.006;2022-09-01T08:22:33;1.73;;;1.25;;
14268;SDS011;7218;51.480;7.006;2022-09-01T08:25:02;1.30;;;1.10;;
14268;SDS011;7218;51.480;7.006;2022-09-01T08:27:30;3.33;;;1.42;;
14268;SDS011;7218;51.480;7.006;2022-09-01T08:29:57;2.45;;;1.20;;
14268;SDS011;7218;51.480;7.006;2022-09-01T08:32:24;2.33;;;1.30;;
14268;SDS011;7218;51.480;7.006;2022-09-01T08:34:51;2.53;;;1.52;;
14268;SDS011;7218;51.480;7.006;2022-09-01T08:37:19;3.58;;;1.30;;
14268;SDS011;7218;51.480;7.006;2022-09-01T08:39:46;6.93;;;1.65;;
14268;SDS011;7218;51.480;7.006;2022-09-01T08:42:14;4.53;;;1.30;;
14268;SDS011;7218;51.480;7.006;2022-09-01T08:44:45;3.60;;;1.20;;
14268;SDS011;7218;51.480;7.006;2022-09-01T08:47:21;3.17;;;1.40;;
14268;SDS011;7218;51.480;7.006;2022-09-01T08:49:48;2.33;;;1.85;;
14268;SDS011;7218;51.480;7.006;2022-09-01T08:52:17;3.92;;;1.23;;
14268;SDS011;7218;51.480;7.006;2022-09-01T08:54:52;1.90;;;1.30;;
14268;SDS011;7218;51.480;7.006;2022-09-01T08:57:24;2.75;;;1.30;;
14268;SDS011;7218;51.480;7.006;2022-09-01T08:59:56;2.33;;;1.60;;
14268;SDS011;7218;51.480;7.006;2022-09-01T09:02:26;2.70;;;1.27;;
14268;SDS011;7218;51.480;7.006;2022-09-01T09:05:03;3.00;;;1.35;;
14268;SDS011;7218;51.480;7.006;2022-09-01T09:07:38;3.78;;;1.73;;
14268;SDS011;7218;51.480;7.006;2022-09-01T09:10:27;5.30;;;1.40;;
14268;SDS011;7218;51.480;7.006;2022-09-01T09:13:01;1.92;;;1.25;;
14268;SDS011;7218;51.480;7.006;2022-09-01T09:15:37;4.50;;;1.30;;
14268;SDS011;7218;51.480;7.006;2022-09-01T09:18:10;1.42;;;1.25;;
14268;SDS011;7218;51.480;7.006;2022-09-01T09:20:41;2.55;;;1.27;;
14268;SDS011;7218;51.480;7.006;2022-09-01T09:23:11;3.78;;;1.15;;
14268;SDS011;7218;51.480;7.006;2022-09-01T09:25:46;1.85;;;1.00;;
14268;SDS011;7218;51.480;7.006;2022-09-01T09:28:13;2.63;;;1.25;;
14268;SDS011;7218;51.480;7.006;2022-09-01T09:30:39;2.40;;;1.05;;
14268;SDS011;7218;51.480;7.006;2022-09-01T09:33:06;2.25;;;1.10;;
14268;SDS011;7218;51.480;7.006;2022-09-01T09:35:35;4.47;;;1.30;;
14268;SDS011;7218;51.480;7.006;2022-09-01T09:38:19;2.28;;;1.10;;
14268;SDS011;7218;51.480;7.006;2022-09-01T09:40:56;2.55;;;1.30;;
14268;SDS011;7218;51.480;7.006;2022-09-01T09:43:25;4.57;;;1.40;;
14268;SDS011;7218;51.480;7.006;2022-09-01T09:46:18;1.70;;;1.17;;
14268;SDS011;7218;51.480;7.006;2022-09-01T09:49:05;2.70;;;1.35;;
14268;SDS011;7218;51.480;7.006;2022-09-01T09:51:36;1.75;;;1.20;;
14268;SDS011;7218;51.480;7.006;2022-09-01T09:54:10;1.45;;;1.02;;
14268;SDS011;7218;51.480;7.006;2022-09-01T09:56:38;4.30;;;1.38;;
14268;SDS011;7218;51.480;7.006;2022-09-01T09:59:15;1.80;;;1.20;;
14268;SDS011;7218;51.480;7.006;2022-09-01T10:01:45;1.70;;;0.93;;
14268;SDS011;7218;51.480;7.006;2022-09-01T10:04:30;1.48;;;1.15;;
14268;SDS011;7218;51.480;7.006;2022-09-01T10:06:59;2.58;;;1.20;;
14268;SDS011;7218;51.480;7.006;2022-09-01T10:09:33;1.65;;;1.10;;
14268;SDS011;7218;51.480;7.006;2022-09-01T10:12:01;1.63;;;1.10;;
14268;SDS011;7218;51.480;7.006;2022-09-01T10:14:32;2.45;;;1.10;;
14268;SDS011;7218;51.480;7.006;2022-09-01T10:17:10;2.60;;;1.40;;
14268;SDS011;7218;51.480;7.006;2022-09-01T10:19:39;3.65;;;1.27;;
14268;SDS011;7218;51.480;7.006;2022-09-01T10:22:11;2.05;;;1.50;;
14268;SDS011;7218;51.480;7.006;2022-09-01T10:24:38;4.57;;;1.23;;
14268;SDS011;7218;51.480;7.006;2022-09-01T10:27:06;4.40;;;1.25;;
14268;SDS011;7218;51.480;7.006;2022-09-01T10:29:37;2.17;;;1.30;;
14268;SDS011;7218;51.480;7.006;2022-09-01T10:32:12;3.88;;;1.20;;
14268;SDS011;7218;51.480;7.006;2022-09-01T10:34:43;2.17;;;1.30;;
14268;SDS011;7218;51.480;7.006;2022-09-01T10:37:12;2.00;;;1.38;;
14268;SDS011;7218;51.480;7.006;2022-09-01T10:42:38;3.10;;;1.17;;
14268;SDS011;7218;51.480;7.006;2022-09-01T10:45:07;5.05;;;1.98;;
14268;SDS011;7218;51.480;7.006;2022-09-01T10:47:47;4.03;;;1.48;;
14268;SDS011;7218;51.480;7.006;2022-09-01T10:50:24;1.48;;;1.27;;
14268;SDS011;7218;51.480;7.006;2022-09-01T10:52:55;2.75;;;1.42;;
14268;SDS011;7218;51.480;7.006;2022-09-01T10:55:34;2.25;;;1.20;;
14268;SDS011;7218;51.480;7.006;2022-09-01T10:58:07;4.10;;;1.50;;
14268;SDS011;7218;51.480;7.006;2022-09-01T11:01:00;2.72;;;1.20;;
14268;SDS011;7218;51.480;7.006;2022-09-01T11:03:44;3.83;;;1.25;;
14268;SDS011;7218;51.480;7.006;2022-09-01T11:06:30;3.17;;;1.20;;
14268;SDS011;7218;51.480;7.006;2022-09-01T11:09:00;3.35;;;1.17;;
14268;SDS011;7218;51.480;7.006;2022-09-01T11:11:30;1.33;;;1.23;;
14268;SDS011;7218;51.480;7.006;2022-09-01T11:14:03;3.22;;;1.40;;
14268;SDS011;7218;51.480;7.006;2022-09-01T11:16:43;2.47;;;1.60;;
14268;SDS011;7218;51.480;7.006;2022-09-01T11:19:39;2.00;;;1.30;;
14268;SDS011;7218;51.480;7.006;2022-09-01T11:22:12;3.58;;;1.38;;
14268;SDS011;7218;51.480;7.006;2022-09-01T11:24:46;2.92;;;1.33;;
14268;SDS011;7218;51.480;7.006;2022-09-01T11:30:16;1.73;;;1.20;;
14268;SDS011;7218;51.480;7.006;2022-09-01T11:32:44;1.95;;;1.40;;
14268;SDS011;7218;51.480;7.006;2022-09-01T11:35:18;2.75;;;1.42;;
14268;SDS011;7218;51.480;7.006;2022-09-01T11:37:47;1.55;;;1.38;;
14268;SDS011;7218;51.480;7.006;2022-09-01T11:40:18;2.70;;;1.48;;
14268;SDS011;7218;51.480;7.006;2022-09-01T11:42:45;2.22;;;1.40;;
14268;SDS011;7218;51.480;7.006;2022-09-01T11:45:16;2.60;;;1.40;;
14268;SDS011;7218;51.480;7.006;2022-09-01T11:47:46;1.58;;;1.30;;
14268;SDS011;7218;51.480;7.006;2022-09-01T11:50:17;4.63;;;1.70;;
14268;SDS011;7218;51.480;7.006;2022-09-01T11:52:51;2.58;;;1.90;;
14268;SDS011;7218;51.480;7.006;2022-09-01T11:55:27;2.53;;;1.60;;
14268;SDS011;7218;51.480;7.006;2022-09-01T11:57:54;2.28;;;1.40;;
14268;SDS011;7218;51.480;7.006;2022-09-01T12:00:24;1.40;;;1.30;;
14268;SDS011;7218;51.480;7.006;2022-09-01T12:02:52;1.85;;;1.55;;
14268;SDS011;7218;51.480;7.006;2022-09-01T12:05:28;3.75;;;1.75;;
14268;SDS011;7218;51.480;7.006;2022-09-01T12:07:56;2.00;;;1.38;;
14268;SDS011;7218;51.480;7.006;2022-09-01T12:10:27;4.43;;;1.90;;
14268;SDS011;7218;51.480;7.006;2022-09-01T12:13:00;8.48;;;2.00;;
14268;SDS011;7218;51.480;7.006;2022-09-01T12:15:29;2.60;;;1.63;;
14268;SDS011;7218;51.480;7.006;2022-09-01T12:18:08;2.55;;;1.48;;
14268;SDS011;7218;51.480;7.006;2022-09-01T12:20:38;3.00;;;1.45;;
14268;SDS011;7218;51.480;7.006;2022-09-01T12:23:14;3.55;;;1.50;;
14268;SDS011;7218;51.480;7.006;2022-09-01T12:25:43;4.32;;;1.50;;
14268;SDS011;7218;51.480;7.006;2022-09-01T12:28:11;7.10;;;1.48;;
14268;SDS011;7218;51.480;7.006;2022-09-01T12:30:39;3.58;;;1.30;;
14268;SDS011;7218;51.480;7.006;2022-09-01T12:33:07;1.88;;;1.40;;
14268;SDS011;7218;51.480;7.006;2022-09-01T12:35:36;3.30;;;1.50;;
14268;SDS011;7218;51.480;7.006;2022-09-01T12:38:22;3.38;;;1.48;;
14268;SDS011;7218;51.480;7.006;2022-09-01T12:40:55;3.25;;;1.30;;
14268;SDS011;7218;51.480;7.006;2022-09-01T12:43:26;2.55;;;1.33;;
14268;SDS011;7218;51.480;7.006;2022-09-01T12:45:54;2.22;;;1.50;;
14268;SDS011;7218;51.480;7.006;2022-09-01T12:48:24;5.05;;;1.45;;
14268;SDS011;7218;51.480;7.006;2022-09-01T12:50:53;4.18;;;1.48;;
14268;SDS011;7218;51.480;7.006;2022-09-01T12:53:27;2.47;;;1.38;;
14268;SDS011;7218;51.480;7.006;2022-09-01T12:58:49;3.33;;;1.35;;
14268;SDS011;7218;51.480;7.006;2022-09-01T13:01:26;5.35;;;1.52;;
14268;SDS011;7218;51.480;7.006;2022-09-01T13:04:06;3.17;;;1.30;;
14268;SDS011;7218;51.480;7.006;2022-09-01T13:06:36;1.67;;;1.33;;
14268;SDS011;7218;51.480;7.006;2022-09-01T13:09:04;1.77;;;1.35;;
14268;SDS011;7218;51.480;7.006;2022-09-01T13:11:30;2.13;;;1.52;;
14268;SDS011;7218;51.480;7.006;2022-09-01T13:13:58;2.75;;;1.23;;
14268;SDS011;7218;51.480;7.006;2022-09-01T13:16:25;2.22;;;1.45;;
14268;SDS011;7218;51.480;7.006;2022-09-01T13:18:52;2.00;;;1.30;;
14268;SDS011;7218;51.480;7.006;2022-09-01T13:21:18;3.97;;;1.40;;
14268;SDS011;7218;51.480;7.006;2022-09-01T13:23:45;3.35;;;1.60;;
14268;SDS011;7218;51.480;7.006;2022-09-01T13:26:15;1.70;;;1.40;;
14268;SDS011;7218;51.480;7.006;2022-09-01T13:28:41;2.88;;;1.60;;
14268;SDS011;7218;51.480;7.006;2022-09-01T13:31:09;2.38;;;1.33;;
14268;SDS011;7218;51.480;7.006;2022-09-01T13:33:37;2.50;;;1.45;;
14268;SDS011;7218;51.480;7.006;2022-09-01T13:36:03;2.70;;;1.50;;
14268;SDS011;7218;51.480;7.006;2022-09-01T13:38:30;2.80;;;1.60;;
14268;SDS011;7218;51.480;7.006;2022-09-01T13:40:57;3.53;;;1.65;;
14268;SDS011;7218;51.480;7.006;2022-09-01T13:43:27;3.25;;;1.27;;
14268;SDS011;7218;51.480;7.006;2022-09-01T13:45:55;4.25;;;1.45;;
14268;SDS011;7218;51.480;7.006;2022-09-01T13:48:21;3.60;;;1.38;;
14268;SDS011;7218;51.480;7.006;2022-09-01T13:50:49;3.20;;;1.30;;
14268;SDS011;7218;51.480;7.006;2022-09-01T13:53:17;5.10;;;1.50;;
14268;SDS011;7218;51.480;7.006;2022-09-01T13:55:44;1.90;;;1.40;;
14268;SDS011;7218;51.480;7.006;2022-09-01T13:58:11;6.13;;;1.50;;
14268;SDS011;7218;51.480;7.006;2022-09-01T14:00:41;3.58;;;1.60;;
14268;SDS011;7218;51.480;7.006;2022-09-01T14:03:11;1.73;;;1.40;;
14268;SDS011;7218;51.480;7.006;2022-09-01T14:05:42;3.80;;;1.50;;
14268;SDS011;7218;51.480;7.006;2022-09-01T14:08:10;3.35;;;1.33;;
14268;SDS011;7218;51.480;7.006;2022-09-01T14:10:39;2.13;;;1.30;;
14268;SDS011;7218;51.480;7.006;2022-09-01T14:13:08;2.40;;;1.33;;
14268;SDS011;7218;51.480;7.006;2022-09-01T14:15:35;2.20;;;1.52;;
14268;SDS011;7218;51.480;7.006;2022-09-01T14:18:03;4.50;;;1.40;;
14268;SDS011;7218;51.480;7.006;2022-09-01T14:20:31;2.20;;;1.48;;
14268;SDS011;7218;51.480;7.006;2022-09-01T14:23:00;1.38;;;1.27;;
14268;SDS011;7218;51.480;7.006;2022-09-01T14:25:28;3.08;;;1.52;;
14268;SDS011;7218;51.480;7.006;2022-09-01T14:27:57;3.05;;;1.40;;
14268;SDS011;7218;51.480;7.006;2022-09-01T14:30:26;3.40;;;1.30;;
14268;SDS011;7218;51.480;7.006;2022-09-01T14:32:53;3.63;;;1.30;;
14268;SDS011;7218;51.480;7.006;2022-09-01T14:35:22;2.65;;;1.52;;
14268;SDS011;7218;51.480;7.006;2022-09-01T14:37:50;2.25;;;1.30;;
14268;SDS011;7218;51.480;7.006;2022-09-01T14:40:17;2.00;;;1.25;;
14268;SDS011;7218;51.480;7.006;2022-09-01T14:42:45;3.00;;;1.40;;
14268;SDS011;7218;51.480;7.006;2022-09-01T14:45:15;3.30;;;1.40;;
14268;SDS011;7218;51.480;7.006;2022-09-01T14:47:43;6.20;;;1.40;;
14268;SDS011;7218;51.480;7.006;2022-09-01T14:50:10;3.15;;;1.35;;
14268;SDS011;7218;51.480;7.006;2022-09-01T14:52:39;4.95;;;1.40;;
14268;SDS011;7218;51.480;7.006;2022-09-01T14:55:05;5.28;;;1.52;;
14268;SDS011;7218;51.480;7.006;2022-09-01T14:57:32;2.15;;;1.33;;
14268;SDS011;7218;51.480;7.006;2022-09-01T14:59:58;3.03;;;1.25;;
14268;SDS011;7218;51.480;7.006;2022-09-01T15:02:25;2.60;;;1.30;;
14268;SDS011;7218;51.480;7.006;2022-09-01T15:04:52;3.22;;;1.42;;
14268;SDS011;7218;51.480;7.006;2022-09-01T15:07:19;1.42;;;1.30;;
14268;SDS011;7218;51.480;7.006;2022-09-01T15:09:47;1.50;;;1.30;;
14268;SDS011;7218;51.480;7.006;2022-09-01T15:12:14;3.13;;;1.20;;
14268;SDS011;7218;51.480;7.006;2022-09-01T15:14:40;3.03;;;1.35;;
14268;SDS011;7218;51.480;7.006;2022-09-01T15:17:07;2.10;;;1.42;;
14268;SDS011;7218;51.480;7.006;2022-09-01T15:19:34;2.42;;;1.50;;
14268;SDS011;7218;51.480;7.006;2022-09-01T15:22:01;1.70;;;1.30;;
14268;SDS011;7218;51.480;7.006;2022-09-01T15:24:28;1.98;;;1.40;;